Glen Cove, New York
Current Conditions -  °F | °C
As of 9:51 AM on Friday 28 Nov 2014 (Local Time) from KLGA Reporting Station
Few Clouds Few Clouds  
Wind Chill: 23°   Ceiling: Unl
Heat Index: 34°   Visibility: 10mi
Dew Point: 21°   Wind: 20mph
Humidity: 59%   Direction: 300°WNW
Pressure: 30.18"   Gusts: 26mph
Location:  40.86°N, 73.63°W
Report Text: KLGA 281451Z 30017G23KT 10SM FEW050 01/M06 A3018 RMK AO2 SLP218 T00111061 51016
Loading
Personal Weather Stations






























Interactive Weather Map New forecast layout! Learn more

10-Day Weather Forecast

Advertisements
Track Severe Weather on mobile